createdAt,value
2018-01-20T00:01:00.060Z,1000.3
2018-01-20T00:02:03.008Z,1000.4
2018-01-20T00:03:04.874Z,1000.4
2018-01-20T00:04:06.258Z,1000.4
2018-01-20T00:05:08.382Z,1000.4
2018-01-20T00:06:10.327Z,1000.4
2018-01-20T00:07:12.546Z,1000.4
2018-01-20T00:08:13.915Z,1000.3
2018-01-20T00:09:17.551Z,1000.4
2018-01-20T00:10:18.912Z,1000.3
2018-01-20T00:11:20.269Z,1000.3
2018-01-20T00:12:21.631Z,1000.3
2018-01-20T00:13:23.042Z,1000.2
2018-01-20T00:14:24.394Z,1000.3
2018-01-20T00:15:25.753Z,1000.3
2018-01-20T00:16:27.103Z,1000.2
2018-01-20T00:17:28.476Z,1000.2
2018-01-20T00:18:30.561Z,1000.2
2018-01-20T00:19:31.923Z,1000.2
2018-01-20T00:20:33.282Z,1000.2
2018-01-20T00:21:35.227Z,1000.2
2018-01-20T00:22:37.485Z,1000.2
2018-01-20T00:23:40.123Z,1000.3
2018-01-20T00:24:42.319Z,1000.2
2018-01-20T00:25:44.272Z,1000.2
2018-01-20T00:26:45.635Z,1000.2
2018-01-20T00:27:47.921Z,1000.2
2018-01-20T00:28:49.283Z,1000.2
2018-01-20T00:29:50.639Z,1000.2
2018-01-20T00:30:52.009Z,1000.2
2018-01-20T00:31:54.184Z,1000.2
2018-01-20T00:32:57.326Z,1000.1
2018-01-20T00:33:59.532Z,1000.2
2018-01-20T00:35:00.894Z,1000.2
2018-01-20T00:36:02.877Z,1000.2
2018-01-20T00:37:05.787Z,1000.1
2018-01-20T00:38:07.150Z,1000.2
2018-01-20T00:39:08.508Z,1000.2
2018-01-20T00:40:10.467Z,1000.1
2018-01-20T00:41:11.833Z,1000.1
2018-01-20T00:42:13.191Z,1000.2
2018-01-20T00:43:16.068Z,1000.2
2018-01-20T00:44:19.013Z,1000.2
2018-01-20T00:45:20.954Z,1000.2
2018-01-20T00:46:22.311Z,1000.1
2018-01-20T00:47:23.674Z,1000.2
2018-01-20T00:48:25.051Z,1000.1
2018-01-20T00:49:27.510Z,1000.2
2018-01-20T00:50:28.867Z,1000.1
2018-01-20T00:51:30.236Z,1000.1
2018-01-20T00:52:33.245Z,1000.2
2018-01-20T00:53:34.604Z,1000.1
2018-01-20T00:54:36.764Z,1000.1
2018-01-20T00:55:38.751Z,1000.1
2018-01-20T00:56:41.598Z,1000.1
2018-01-20T00:57:44.587Z,1000.1
2018-01-20T00:58:45.948Z,1000.1
2018-01-20T00:59:47.314Z,1000.1
2018-01-20T01:00:48.665Z,1000.2
2018-01-20T01:01:50.031Z,1000.1
2018-01-20T01:02:51.384Z,1000.1
2018-01-20T01:03:52.756Z,1000.1
2018-01-20T01:04:54.626Z,1000.1
2018-01-20T01:05:55.990Z,1000.0
2018-01-20T01:06:57.365Z,1000.0
2018-01-20T01:07:58.749Z,1000.1
2018-01-20T01:09:02.478Z,1000.1
2018-01-20T01:10:06.172Z,1000.1
2018-01-20T01:11:07.537Z,1000.1
2018-01-20T01:12:09.603Z,1000.0
2018-01-20T01:13:11.480Z,1000.0
2018-01-20T01:14:13.913Z,1000.1
2018-01-20T01:15:15.331Z,1000.0
2018-01-20T01:16:19.003Z,1000.1
2018-01-20T01:17:20.402Z,1000.1
2018-01-20T01:18:21.769Z,1000.1
2018-01-20T01:19:23.647Z,1000.1
2018-01-20T01:20:25.038Z,1000.1
2018-01-20T01:21:26.401Z,1000.1
2018-01-20T01:22:27.765Z,1000.1
2018-01-20T01:23:30.115Z,1000.1
2018-01-20T01:24:31.471Z,1000.1
2018-01-20T01:25:33.627Z,1000.1
2018-01-20T01:26:34.992Z,1000.1
2018-01-20T01:27:37.014Z,1000.1
2018-01-20T01:28:38.369Z,1000.1
2018-01-20T01:29:39.733Z,1000.1
2018-01-20T01:30:42.011Z,1000.0
2018-01-20T01:31:43.395Z,999.9
2018-01-20T01:32:44.755Z,1000.0
2018-01-20T01:33:46.106Z,999.9
2018-01-20T01:34:48.386Z,999.9
2018-01-20T01:35:49.765Z,1000.0
2018-01-20T01:36:51.124Z,1000.0
2018-01-20T01:37:53.474Z,999.9
2018-01-20T01:38:54.831Z,999.9
2018-01-20T01:39:56.316Z,999.9
2018-01-20T01:40:57.676Z,999.9
2018-01-20T01:41:59.039Z,999.9
2018-01-20T01:43:00.410Z,999.9
2018-01-20T01:44:01.768Z,999.9
2018-01-20T01:45:04.546Z,999.9
2018-01-20T01:46:05.918Z,999.8
2018-01-20T01:47:08.967Z,999.8
2018-01-20T01:48:10.323Z,999.8
2018-01-20T01:49:11.687Z,999.7
2018-01-20T01:50:14.826Z,999.7
2018-01-20T01:51:16.191Z,999.7
2018-01-20T01:52:18.211Z,999.7
2018-01-20T01:53:20.245Z,999.8
2018-01-20T01:54:22.261Z,999.8
2018-01-20T01:55:25.200Z,999.8
2018-01-20T01:56:26.562Z,999.8
2018-01-20T01:57:27.937Z,999.8
2018-01-20T01:58:30.051Z,999.8
2018-01-20T01:59:33.057Z,999.8
2018-01-20T02:00:34.422Z,999.8
2018-01-20T02:01:37.257Z,999.8
2018-01-20T02:02:38.618Z,999.8
2018-01-20T02:03:40.738Z,999.8
2018-01-20T02:04:42.101Z,999.8
2018-01-20T02:05:43.460Z,999.8
2018-01-20T02:06:46.420Z,999.8
2018-01-20T02:07:47.889Z,999.7
2018-01-20T02:08:49.244Z,999.7
2018-01-20T02:09:50.605Z,999.7
2018-01-20T02:10:51.973Z,999.7
2018-01-20T02:11:53.463Z,999.7
2018-01-20T02:12:54.830Z,999.7
2018-01-20T02:13:56.190Z,999.6
2018-01-20T02:14:57.545Z,999.6
2018-01-20T02:15:59.774Z,999.6
2018-01-20T02:17:03.768Z,999.6
2018-01-20T02:18:05.137Z,999.6
2018-01-20T02:19:08.034Z,999.7
2018-01-20T02:20:09.397Z,999.6
2018-01-20T02:21:10.754Z,999.6
2018-01-20T02:22:12.128Z,999.6
2018-01-20T02:23:13.496Z,999.6
2018-01-20T02:24:17.524Z,999.6
2018-01-20T02:25:21.562Z,999.6
2018-01-20T02:26:22.869Z,999.6
2018-01-20T02:27:24.231Z,999.6
2018-01-20T02:28:25.588Z,999.6
2018-01-20T02:29:27.567Z,999.6
2018-01-20T02:30:28.938Z,999.6
2018-01-20T02:31:33.012Z,999.6
2018-01-20T02:32:34.347Z,999.6
2018-01-20T02:33:36.240Z,999.6
2018-01-20T02:34:37.620Z,999.6
2018-01-20T02:35:39.004Z,999.6
2018-01-20T02:36:41.609Z,999.6
2018-01-20T02:37:42.976Z,999.7
2018-01-20T02:38:44.356Z,999.7
2018-01-20T02:39:48.758Z,999.7
2018-01-20T02:40:50.877Z,999.6
2018-01-20T02:41:53.414Z,999.6
2018-01-20T02:42:54.773Z,999.6
2018-01-20T02:43:56.126Z,999.6
2018-01-20T02:44:57.499Z,999.6
2018-01-20T02:45:58.872Z,999.6
2018-01-20T02:47:03.271Z,999.5
2018-01-20T02:48:05.348Z,999.5
2018-01-20T02:49:06.729Z,999.5
2018-01-20T02:50:08.088Z,999.5
2018-01-20T02:51:09.460Z,999.5
2018-01-20T02:52:12.524Z,999.5
2018-01-20T02:53:13.877Z,999.5
2018-01-20T02:54:15.244Z,999.5
2018-01-20T02:55:19.348Z,999.6
2018-01-20T02:56:21.587Z,999.6
2018-01-20T02:57:24.510Z,999.6
2018-01-20T02:58:25.865Z,999.6
2018-01-20T02:59:27.231Z,999.5
2018-01-20T03:00:29.263Z,999.5
2018-01-20T03:01:30.627Z,999.5
2018-01-20T03:02:58.436Z,999.6
2018-01-20T03:03:58.807Z,999.6
2018-01-20T03:05:00.177Z,999.6
2018-01-20T03:06:01.534Z,999.6
2018-01-20T03:07:02.900Z,999.6
2018-01-20T03:08:04.254Z,999.6
2018-01-20T03:09:05.607Z,999.7
2018-01-20T03:10:06.972Z,999.7
2018-01-20T03:11:08.322Z,999.7
2018-01-20T03:12:09.696Z,999.6
2018-01-20T03:13:11.059Z,999.7
2018-01-20T03:14:12.417Z,999.6
2018-01-20T03:15:13.765Z,999.6
2018-01-20T03:16:15.128Z,999.6
2018-01-20T03:17:16.486Z,999.5
2018-01-20T03:18:17.857Z,999.6
2018-01-20T03:19:19.218Z,999.6
2018-01-20T03:20:20.583Z,999.7
2018-01-20T03:21:21.942Z,999.6
2018-01-20T03:22:23.291Z,999.6
2018-01-20T03:23:24.659Z,999.6
2018-01-20T03:24:26.641Z,999.6
2018-01-20T03:25:28.018Z,999.5
2018-01-20T03:26:29.371Z,999.5
2018-01-20T03:27:30.728Z,999.6
2018-01-20T03:28:32.092Z,999.5
2018-01-20T03:29:33.445Z,999.5
2018-01-20T03:30:34.812Z,999.6
2018-01-20T03:31:36.182Z,999.5
2018-01-20T03:32:37.538Z,999.5
2018-01-20T03:33:38.893Z,999.5
2018-01-20T03:34:40.257Z,999.5
2018-01-20T03:35:41.618Z,999.5
2018-01-20T03:36:42.975Z,999.5
2018-01-20T03:37:44.328Z,999.5
2018-01-20T03:38:45.687Z,999.5
2018-01-20T03:39:47.045Z,999.5
2018-01-20T03:40:48.408Z,999.5
2018-01-20T03:41:49.766Z,999.5
2018-01-20T03:42:51.123Z,999.4
2018-01-20T03:43:52.482Z,999.4
2018-01-20T03:44:53.842Z,999.5
2018-01-20T03:45:55.196Z,999.4
2018-01-20T03:46:56.551Z,999.5
2018-01-20T03:47:57.912Z,999.5
2018-01-20T03:48:59.274Z,999.5
2018-01-20T03:50:00.643Z,999.4
2018-01-20T03:51:01.990Z,999.4
2018-01-20T03:52:03.353Z,999.4
2018-01-20T03:53:04.711Z,999.5
2018-01-20T03:54:06.069Z,999.5
2018-01-20T03:55:07.433Z,999.5
2018-01-20T03:56:08.786Z,999.4
2018-01-20T03:57:10.146Z,999.4
2018-01-20T03:58:11.504Z,999.4
2018-01-20T03:59:12.859Z,999.4
2018-01-20T04:00:14.229Z,999.4
2018-01-20T04:01:15.592Z,999.4
2018-01-20T04:02:16.948Z,999.4
2018-01-20T04:03:18.303Z,999.4
2018-01-20T04:04:19.658Z,999.4
2018-01-20T04:05:21.015Z,999.4
2018-01-20T04:06:22.371Z,999.4
2018-01-20T04:07:23.727Z,999.4
2018-01-20T04:08:25.084Z,999.4
2018-01-20T04:09:27.054Z,999.4
2018-01-20T04:10:28.410Z,999.4
2018-01-20T04:11:29.772Z,999.4
2018-01-20T04:12:31.145Z,999.4
2018-01-20T04:13:32.501Z,999.4
2018-01-20T04:14:33.862Z,999.4
2018-01-20T04:15:35.215Z,999.3
2018-01-20T04:16:36.573Z,999.4
2018-01-20T04:17:37.929Z,999.4
2018-01-20T04:18:39.290Z,999.3
2018-01-20T04:19:40.649Z,999.3
2018-01-20T04:20:42.010Z,999.3
2018-01-20T04:21:43.373Z,999.3
2018-01-20T04:22:44.729Z,999.3
2018-01-20T04:23:46.091Z,999.3
2018-01-20T04:24:47.455Z,999.3
2018-01-20T04:25:48.814Z,999.2
2018-01-20T04:26:50.184Z,999.2
2018-01-20T04:27:51.543Z,999.2
2018-01-20T04:28:52.897Z,999.2
2018-01-20T04:29:54.260Z,999.2
2018-01-20T04:30:55.610Z,999.2
2018-01-20T04:31:56.972Z,999.2
2018-01-20T04:32:58.342Z,999.2
2018-01-20T04:33:59.702Z,999.1
2018-01-20T04:35:01.054Z,999.1
2018-01-20T04:36:02.413Z,999.1
2018-01-20T04:37:03.773Z,999.1
2018-01-20T04:38:05.133Z,999.0
2018-01-20T04:39:06.521Z,999.0
2018-01-20T04:40:07.880Z,999.0
2018-01-20T04:41:09.232Z,999.0
2018-01-20T04:42:10.587Z,999.0
2018-01-20T04:43:11.938Z,999.0
2018-01-20T04:44:13.297Z,999.0
2018-01-20T04:45:14.660Z,999.0
2018-01-20T04:46:16.024Z,999.0
2018-01-20T04:47:17.378Z,999.0
2018-01-20T04:48:18.744Z,999.0
2018-01-20T04:49:20.095Z,999.0
2018-01-20T04:50:21.455Z,999.0
2018-01-20T04:51:22.817Z,998.9
2018-01-20T04:52:24.179Z,999.0
2018-01-20T04:53:25.536Z,998.9
2018-01-20T04:54:26.890Z,999.0
2018-01-20T04:55:28.247Z,998.9
2018-01-20T04:56:29.607Z,998.9
2018-01-20T04:57:30.969Z,998.9
2018-01-20T04:58:32.332Z,998.9
2018-01-20T04:59:33.683Z,998.9
2018-01-20T05:00:35.040Z,998.9
2018-01-20T05:01:36.398Z,998.9
2018-01-20T05:02:37.759Z,998.9
2018-01-20T05:03:39.119Z,998.9
2018-01-20T05:04:40.476Z,998.9
2018-01-20T05:05:41.840Z,998.8
2018-01-20T05:06:43.202Z,998.8
2018-01-20T05:07:44.561Z,998.8
2018-01-20T05:08:45.921Z,998.8
2018-01-20T05:09:47.284Z,998.8
2018-01-20T05:10:48.642Z,998.8
2018-01-20T05:11:50.003Z,998.8
2018-01-20T05:12:51.356Z,998.7
2018-01-20T05:13:52.722Z,998.8
2018-01-20T05:14:54.084Z,998.7
2018-01-20T05:15:55.442Z,998.8
2018-01-20T05:16:57.720Z,998.8
2018-01-20T05:17:59.097Z,998.8
2018-01-20T05:19:00.455Z,998.8
2018-01-20T05:20:01.821Z,998.8
2018-01-20T05:21:03.172Z,998.8
2018-01-20T05:22:04.536Z,998.8
2018-01-20T05:23:05.891Z,998.8
2018-01-20T05:24:07.248Z,998.9
2018-01-20T05:25:08.603Z,998.9
2018-01-20T05:26:09.959Z,998.9
2018-01-20T05:27:11.316Z,998.9
2018-01-20T05:28:12.675Z,998.9
2018-01-20T05:29:14.035Z,998.9
2018-01-20T05:30:15.388Z,998.9
2018-01-20T05:31:16.744Z,998.8
2018-01-20T05:32:18.105Z,998.8
2018-01-20T05:33:19.464Z,998.8
2018-01-20T05:34:20.825Z,998.8
2018-01-20T05:35:22.236Z,998.8
2018-01-20T05:36:23.599Z,998.9
2018-01-20T05:37:24.961Z,998.9
2018-01-20T05:38:26.903Z,998.9
2018-01-20T05:39:28.264Z,998.8
2018-01-20T05:40:29.624Z,998.9
2018-01-20T05:41:30.984Z,998.8
2018-01-20T05:42:32.343Z,998.8
2018-01-20T05:43:33.696Z,998.8
2018-01-20T05:44:35.052Z,998.8
2018-01-20T05:45:36.406Z,998.8
2018-01-20T05:46:37.823Z,998.7
2018-01-20T05:47:40.072Z,998.8
2018-01-20T05:48:41.422Z,998.8
2018-01-20T05:49:42.789Z,998.8
2018-01-20T05:50:44.141Z,998.8
2018-01-20T05:51:45.513Z,998.8
2018-01-20T05:52:46.859Z,998.8
2018-01-20T05:53:48.210Z,998.8
2018-01-20T05:54:49.568Z,998.8
2018-01-20T05:55:50.936Z,998.8
2018-01-20T05:56:52.305Z,998.8
2018-01-20T05:57:53.665Z,998.8
2018-01-20T05:58:55.029Z,998.8
2018-01-20T05:59:56.390Z,998.7
2018-01-20T06:00:57.742Z,998.8
2018-01-20T06:01:59.108Z,998.8
2018-01-20T06:03:00.462Z,998.8
2018-01-20T06:04:01.820Z,998.8
2018-01-20T06:05:03.187Z,998.7
2018-01-20T06:06:04.539Z,998.8
2018-01-20T06:07:05.891Z,998.8
2018-01-20T06:08:07.248Z,998.8
2018-01-20T06:09:08.610Z,998.7
2018-01-20T06:10:09.966Z,998.7
2018-01-20T06:11:11.328Z,998.7
2018-01-20T06:12:12.682Z,998.7
2018-01-20T06:13:14.041Z,998.7
2018-01-20T06:14:15.400Z,998.7
2018-01-20T06:15:16.757Z,998.7
2018-01-20T06:16:18.110Z,998.6
2018-01-20T06:17:19.489Z,998.6
2018-01-20T06:18:20.846Z,998.6
2018-01-20T06:19:22.273Z,998.7
2018-01-20T06:20:23.631Z,998.6
2018-01-20T06:21:24.994Z,998.7
2018-01-20T06:22:26.351Z,998.6
2018-01-20T06:23:27.718Z,998.6
2018-01-20T06:24:29.122Z,998.6
2018-01-20T06:25:30.507Z,998.6
2018-01-20T06:26:31.888Z,998.6
2018-01-20T06:27:33.252Z,998.6
2018-01-20T06:28:34.634Z,998.6
2018-01-20T06:29:36.004Z,998.6
2018-01-20T06:30:37.402Z,998.6
2018-01-20T06:31:38.766Z,998.6
2018-01-20T06:32:40.147Z,998.6
2018-01-20T06:33:41.553Z,998.6
2018-01-20T06:34:42.890Z,998.5
2018-01-20T06:35:44.248Z,998.6
2018-01-20T06:36:45.643Z,998.6
2018-01-20T06:37:47.028Z,998.6
2018-01-20T06:38:48.401Z,998.6
2018-01-20T06:39:50.347Z,998.5
2018-01-20T06:40:51.718Z,998.5
2018-01-20T06:41:53.098Z,998.5
2018-01-20T06:42:54.472Z,998.5
2018-01-20T06:43:55.837Z,998.5
2018-01-20T06:44:57.273Z,998.4
2018-01-20T06:45:58.659Z,998.5
2018-01-20T06:47:00.023Z,998.5
2018-01-20T06:48:01.402Z,998.5
2018-01-20T06:49:02.796Z,998.5
2018-01-20T06:50:04.157Z,998.5
2018-01-20T06:51:05.526Z,998.4
2018-01-20T06:52:06.865Z,998.4
2018-01-20T06:53:08.237Z,998.4
2018-01-20T06:54:09.604Z,998.5
2018-01-20T06:55:10.984Z,998.5
2018-01-20T06:56:12.337Z,998.5
2018-01-20T06:57:13.704Z,998.5
2018-01-20T06:58:15.066Z,998.5
2018-01-20T06:59:16.432Z,998.5
2018-01-20T07:00:17.792Z,998.5
2018-01-20T07:01:19.150Z,998.4
2018-01-20T07:02:20.507Z,998.4
2018-01-20T07:03:21.874Z,998.4
2018-01-20T07:04:23.231Z,998.4
2018-01-20T07:05:24.589Z,998.4
2018-01-20T07:06:25.948Z,998.4
2018-01-20T07:07:27.318Z,998.4
2018-01-20T07:08:28.679Z,998.4
2018-01-20T07:09:30.037Z,998.3
2018-01-20T07:10:31.419Z,998.3
2018-01-20T07:11:32.787Z,998.3
2018-01-20T07:12:34.145Z,998.3
2018-01-20T07:13:35.510Z,998.3
2018-01-20T07:14:36.890Z,998.3
2018-01-20T07:15:38.241Z,998.3
2018-01-20T07:16:39.612Z,998.3
2018-01-20T07:17:40.969Z,998.3
2018-01-20T07:18:42.328Z,998.2
2018-01-20T07:19:43.683Z,998.3
2018-01-20T07:20:45.045Z,998.3
2018-01-20T07:21:46.426Z,998.4
2018-01-20T07:22:47.777Z,998.3
2018-01-20T07:23:49.158Z,998.3
2018-01-20T07:24:50.521Z,998.4
2018-01-20T07:25:51.884Z,998.3
2018-01-20T07:26:53.246Z,998.4
2018-01-20T07:27:54.602Z,998.4
2018-01-20T07:28:55.963Z,998.3
2018-01-20T07:29:57.328Z,998.4
2018-01-20T07:30:58.687Z,998.3
2018-01-20T07:32:00.057Z,998.4
2018-01-20T07:33:01.408Z,998.3
2018-01-20T07:34:02.771Z,998.4
2018-01-20T07:35:04.131Z,998.4
2018-01-20T07:36:05.496Z,998.4
2018-01-20T07:37:06.871Z,998.3
2018-01-20T07:38:08.233Z,998.3
2018-01-20T07:39:09.601Z,998.3
2018-01-20T07:40:50.413Z,998.3
2018-01-20T07:41:51.768Z,998.3
2018-01-20T07:42:53.119Z,998.3
2018-01-20T07:43:54.477Z,998.3
2018-01-20T07:44:55.823Z,998.3
2018-01-20T07:45:57.185Z,998.2
2018-01-20T07:46:58.545Z,998.3
2018-01-20T07:47:59.904Z,998.3
2018-01-20T07:49:01.256Z,998.3
2018-01-20T07:50:02.623Z,998.3
2018-01-20T07:51:03.977Z,998.3
2018-01-20T07:52:05.336Z,998.3
2018-01-20T07:53:06.687Z,998.3
2018-01-20T07:54:08.048Z,998.3
2018-01-20T07:55:09.397Z,998.3
2018-01-20T07:56:10.750Z,998.2
2018-01-20T07:57:12.105Z,998.3
2018-01-20T07:58:13.459Z,998.3
2018-01-20T07:59:14.824Z,998.2
2018-01-20T08:00:16.183Z,998.2
2018-01-20T08:01:17.531Z,998.1
2018-01-20T08:02:18.894Z,998.1
2018-01-20T08:03:20.247Z,998.1
2018-01-20T08:04:21.612Z,998.1
2018-01-20T08:05:22.962Z,998.2
2018-01-20T08:06:24.325Z,998.2
2018-01-20T08:07:25.680Z,998.2
2018-01-20T08:08:27.041Z,998.2
2018-01-20T08:09:28.429Z,998.2
2018-01-20T08:10:29.787Z,998.2
2018-01-20T08:11:31.161Z,998.2
2018-01-20T08:12:32.522Z,998.2
2018-01-20T08:13:33.878Z,998.2
2018-01-20T08:14:35.254Z,998.1
2018-01-20T08:15:36.616Z,998.2
2018-01-20T08:16:37.970Z,998.1
2018-01-20T08:17:39.324Z,998.1
2018-01-20T08:18:40.682Z,998.1
2018-01-20T08:19:42.033Z,998.1
2018-01-20T08:20:43.387Z,998.1
2018-01-20T08:21:44.750Z,998.1
2018-01-20T08:22:46.689Z,998.1
2018-01-20T08:23:48.044Z,998.1
2018-01-20T08:24:49.404Z,998.1
2018-01-20T08:25:50.809Z,998.0
2018-01-20T08:26:52.290Z,998.1
2018-01-20T08:27:53.659Z,998.0
2018-01-20T08:28:55.029Z,998.0
2018-01-20T08:29:56.393Z,998.0
2018-01-20T08:30:57.775Z,998.0
2018-01-20T08:31:59.124Z,998.0
2018-01-20T08:33:00.485Z,998.0
2018-01-20T08:34:01.837Z,998.0
2018-01-20T08:35:03.202Z,998.0
2018-01-20T08:36:04.561Z,998.0
2018-01-20T08:37:05.920Z,997.9
2018-01-20T08:38:07.288Z,997.9
2018-01-20T08:39:08.676Z,997.9
2018-01-20T08:40:10.090Z,997.9
2018-01-20T08:41:11.465Z,998.0
2018-01-20T08:42:12.820Z,998.0
2018-01-20T08:43:14.196Z,998.0
2018-01-20T08:44:15.566Z,997.9
2018-01-20T08:45:16.925Z,997.9
2018-01-20T08:46:18.287Z,997.9
2018-01-20T08:47:19.676Z,997.9
2018-01-20T08:48:21.032Z,997.8
2018-01-20T08:49:22.454Z,997.9
2018-01-20T08:50:23.825Z,997.9
2018-01-20T08:51:25.261Z,997.9
2018-01-20T08:52:27.209Z,997.8
2018-01-20T08:53:28.577Z,997.8
2018-01-20T08:54:29.969Z,997.8
2018-01-20T08:55:31.464Z,997.8
2018-01-20T08:56:32.858Z,997.8
2018-01-20T08:57:34.295Z,997.8
2018-01-20T08:58:35.651Z,997.8
2018-01-20T08:59:37.061Z,997.7
2018-01-20T09:00:38.433Z,997.7
2018-01-20T09:01:39.854Z,997.7
2018-01-20T09:02:41.205Z,997.7
2018-01-20T09:03:42.580Z,997.7
2018-01-20T09:04:43.955Z,997.6
2018-01-20T09:05:45.353Z,997.6
2018-01-20T09:06:46.718Z,997.6
2018-01-20T09:07:48.092Z,997.6
2018-01-20T09:08:49.453Z,997.6
2018-01-20T09:09:50.839Z,997.6
2018-01-20T09:10:52.199Z,997.6
2018-01-20T09:11:53.598Z,997.5
2018-01-20T09:12:54.961Z,997.5
2018-01-20T09:13:57.004Z,997.5
2018-01-20T09:14:58.389Z,997.4
2018-01-20T09:15:59.844Z,997.4
2018-01-20T09:17:01.244Z,997.4
2018-01-20T09:18:02.616Z,997.4
2018-01-20T09:19:03.987Z,997.4
2018-01-20T09:20:05.369Z,997.3
2018-01-20T09:21:06.744Z,997.3
2018-01-20T09:22:08.121Z,997.3
2018-01-20T09:23:09.504Z,997.3
2018-01-20T09:24:10.968Z,997.2
2018-01-20T09:25:12.233Z,997.3
2018-01-20T09:26:13.589Z,997.2
2018-01-20T09:27:15.798Z,997.3
2018-01-20T09:28:17.251Z,997.2
2018-01-20T09:29:18.608Z,997.2
2018-01-20T09:30:20.021Z,997.2
2018-01-20T09:31:21.421Z,997.2
2018-01-20T09:32:22.775Z,997.2
2018-01-20T09:33:24.149Z,997.1
2018-01-20T09:34:25.569Z,997.1
2018-01-20T09:35:26.991Z,997.2
2018-01-20T09:36:28.381Z,997.2
2018-01-20T09:37:29.804Z,997.2
2018-01-20T09:38:31.221Z,997.1
2018-01-20T09:39:32.577Z,997.1
2018-01-20T09:40:33.948Z,997.1
2018-01-20T09:41:35.306Z,997.1
2018-01-20T09:42:36.658Z,997.1
2018-01-20T09:43:38.028Z,997.0
2018-01-20T09:44:39.399Z,997.0
2018-01-20T09:45:40.764Z,997.0
2018-01-20T09:46:42.135Z,997.0
2018-01-20T09:47:43.498Z,997.0
2018-01-20T09:48:44.860Z,997.0
2018-01-20T09:49:46.234Z,997.0
2018-01-20T09:50:47.594Z,997.0
2018-01-20T09:51:48.953Z,996.9
2018-01-20T09:52:50.326Z,996.9
2018-01-20T09:53:51.697Z,996.9
2018-01-20T09:54:53.067Z,996.8
2018-01-20T09:55:54.428Z,996.8
2018-01-20T09:56:56.538Z,996.8
2018-01-20T09:57:57.227Z,996.8
2018-01-20T09:58:58.650Z,996.7
2018-01-20T10:00:00.047Z,996.7
2018-01-20T10:01:01.412Z,996.8
2018-01-20T10:02:03.852Z,996.7
2018-01-20T10:03:05.197Z,996.7
2018-01-20T10:04:06.553Z,996.7
2018-01-20T10:05:07.916Z,996.6
2018-01-20T10:06:09.276Z,996.7
2018-01-20T10:07:10.648Z,996.7
2018-01-20T10:08:12.016Z,996.7
2018-01-20T10:09:13.392Z,996.6
2018-01-20T10:10:14.755Z,996.6
2018-01-20T10:11:16.115Z,996.7
2018-01-20T10:12:17.469Z,996.7
2018-01-20T10:13:18.830Z,996.6
2018-01-20T10:14:20.199Z,996.6
2018-01-20T10:15:21.558Z,996.7
2018-01-20T10:16:22.922Z,996.6
2018-01-20T10:17:24.282Z,996.6
2018-01-20T10:18:25.635Z,996.5
2018-01-20T10:19:27.013Z,996.6
2018-01-20T10:20:28.386Z,996.5
2018-01-20T10:21:29.755Z,996.5
2018-01-20T10:22:31.121Z,996.5
2018-01-20T10:23:32.474Z,996.5
2018-01-20T10:24:33.883Z,996.5
2018-01-20T10:25:35.220Z,996.4
2018-01-20T10:26:36.584Z,996.4
2018-01-20T10:27:37.943Z,996.3
2018-01-20T10:28:39.310Z,996.3
2018-01-20T10:29:40.662Z,996.4
2018-01-20T10:30:42.037Z,996.3
2018-01-20T10:31:43.396Z,996.3
2018-01-20T10:32:44.766Z,996.3
2018-01-20T10:33:46.127Z,996.3
2018-01-20T10:34:47.491Z,996.3
2018-01-20T10:35:48.844Z,996.2
2018-01-20T10:36:50.202Z,996.2
2018-01-20T10:37:51.561Z,996.1
2018-01-20T10:38:52.923Z,996.1
2018-01-20T10:39:54.304Z,996.1
2018-01-20T10:40:55.673Z,996.1
2018-01-20T10:41:57.033Z,996.1
2018-01-20T10:42:58.396Z,996.0
2018-01-20T10:43:59.752Z,996.0
2018-01-20T10:45:01.119Z,996.0
2018-01-20T10:46:02.474Z,996.0
2018-01-20T10:47:03.864Z,996.0
2018-01-20T10:48:05.203Z,996.0
2018-01-20T10:49:06.571Z,996.0
2018-01-20T10:50:07.932Z,995.9
2018-01-20T10:51:09.287Z,995.9
2018-01-20T10:52:10.649Z,995.9
2018-01-20T10:53:12.011Z,995.9
2018-01-20T10:54:13.427Z,995.9
2018-01-20T10:55:14.789Z,995.9
2018-01-20T10:56:16.141Z,995.8
2018-01-20T10:57:17.509Z,995.8
2018-01-20T10:58:18.874Z,995.7
2018-01-20T10:59:20.252Z,995.7
2018-01-20T11:00:21.639Z,995.7
2018-01-20T11:01:22.989Z,995.7
2018-01-20T11:02:24.352Z,995.7
2018-01-20T11:03:25.703Z,995.6
2018-01-20T11:04:27.078Z,995.7
2018-01-20T11:05:28.463Z,995.6
2018-01-20T11:06:29.831Z,995.6
2018-01-20T11:07:31.200Z,995.6
2018-01-20T11:08:32.570Z,995.5
2018-01-20T11:09:34.405Z,995.5
2018-01-20T11:10:35.749Z,995.4
2018-01-20T11:11:37.124Z,995.4
2018-01-20T11:12:38.493Z,995.4
2018-01-20T11:13:39.858Z,995.4
2018-01-20T11:14:41.238Z,995.3
2018-01-20T11:15:42.596Z,995.3
2018-01-20T11:16:43.959Z,995.2
2018-01-20T11:17:45.315Z,995.2
2018-01-20T11:18:46.674Z,995.2
2018-01-20T11:19:48.041Z,995.1
2018-01-20T11:20:49.399Z,995.1
2018-01-20T11:21:50.767Z,995.0
2018-01-20T11:22:52.129Z,995.0
2018-01-20T11:23:53.498Z,995.0
2018-01-20T11:24:54.853Z,995.0
2018-01-20T11:25:56.238Z,995.0
2018-01-20T11:26:57.637Z,994.9
2018-01-20T11:27:59.067Z,994.9
2018-01-20T11:29:01.066Z,994.8
2018-01-20T11:30:02.427Z,994.8
2018-01-20T11:31:03.789Z,994.8
2018-01-20T11:32:05.166Z,994.7
2018-01-20T11:33:06.557Z,994.7
2018-01-20T11:34:07.921Z,994.6
2018-01-20T11:35:09.267Z,994.6
2018-01-20T11:36:10.628Z,994.6
2018-01-20T11:37:11.996Z,994.6
2018-01-20T11:38:13.374Z,994.5
2018-01-20T11:39:14.741Z,994.5
2018-01-20T11:40:16.101Z,994.4
2018-01-20T11:41:17.459Z,994.4
2018-01-20T11:42:18.821Z,994.3
2018-01-20T11:43:20.194Z,994.3
2018-01-20T11:44:21.567Z,994.3
2018-01-20T11:45:22.920Z,994.3
2018-01-20T11:46:24.284Z,994.2
2018-01-20T11:47:25.652Z,994.2
2018-01-20T11:48:27.001Z,994.2
2018-01-20T11:49:28.371Z,994.1
2018-01-20T11:50:29.726Z,994.1
2018-01-20T11:51:31.101Z,994.1
2018-01-20T11:52:32.457Z,994.0
2018-01-20T11:53:33.818Z,994.0
2018-01-20T11:54:35.186Z,994.0
2018-01-20T11:55:36.547Z,994.0
2018-01-20T11:56:37.902Z,994.0
2018-01-20T11:57:39.279Z,993.9
2018-01-20T11:58:40.652Z,993.9
2018-01-20T11:59:42.008Z,993.8
2018-01-20T12:00:43.364Z,993.8
2018-01-20T12:01:44.732Z,993.7
2018-01-20T12:02:46.092Z,993.7
2018-01-20T12:03:47.454Z,993.7
2018-01-20T12:04:48.812Z,993.7
2018-01-20T12:05:50.169Z,993.7
2018-01-20T12:06:51.536Z,993.6
2018-01-20T12:07:52.900Z,993.6
2018-01-20T12:08:54.281Z,993.6
2018-01-20T12:09:55.640Z,993.6
2018-01-20T12:10:56.999Z,993.5
2018-01-20T12:11:58.364Z,993.4
2018-01-20T12:12:59.721Z,993.4
2018-01-20T12:14:01.082Z,993.3
2018-01-20T12:15:02.442Z,993.4
2018-01-20T12:16:03.799Z,993.3
2018-01-20T12:17:05.162Z,993.3
2018-01-20T12:18:06.517Z,993.2
2018-01-20T12:19:07.903Z,993.2
2018-01-20T12:20:09.266Z,993.1
2018-01-20T12:21:10.636Z,993.1
2018-01-20T12:22:12.012Z,993.0
2018-01-20T12:23:13.391Z,993.0
2018-01-20T12:24:14.767Z,993.0
2018-01-20T12:25:16.139Z,992.9
2018-01-20T12:26:18.705Z,992.8
2018-01-20T12:27:20.075Z,992.8
2018-01-20T12:28:21.430Z,992.8
2018-01-20T12:29:22.806Z,992.8
2018-01-20T12:30:24.184Z,992.7
2018-01-20T12:31:25.584Z,992.7
2018-01-20T12:32:26.959Z,992.7
2018-01-20T12:33:28.350Z,992.7
2018-01-20T12:34:29.713Z,992.6
2018-01-20T12:35:31.072Z,992.6
2018-01-20T12:36:32.444Z,992.6
2018-01-20T12:37:33.806Z,992.6
2018-01-20T12:38:35.186Z,992.5
2018-01-20T12:39:36.550Z,992.5
2018-01-20T12:40:37.983Z,992.5
2018-01-20T12:41:39.345Z,992.5
2018-01-20T12:42:40.700Z,992.4
2018-01-20T12:43:42.060Z,992.4
2018-01-20T12:44:43.422Z,992.4
2018-01-20T12:45:44.788Z,992.3
2018-01-20T12:46:46.146Z,992.3
2018-01-20T12:47:47.518Z,992.2
2018-01-20T12:48:48.889Z,992.3
2018-01-20T12:49:50.251Z,992.2
2018-01-20T12:50:51.624Z,992.1
2018-01-20T12:51:53.015Z,992.1
2018-01-20T12:52:54.366Z,992.0
2018-01-20T12:53:55.751Z,991.9
2018-01-20T12:54:57.128Z,991.9
2018-01-20T12:55:58.483Z,991.9
2018-01-20T12:56:59.852Z,991.9
2018-01-20T12:58:01.221Z,991.9
2018-01-20T12:59:02.580Z,991.8
2018-01-20T13:00:03.960Z,991.8
2018-01-20T13:01:05.417Z,991.8
2018-01-20T13:02:06.805Z,991.7
2018-01-20T13:03:08.165Z,991.7
2018-01-20T13:04:09.533Z,991.6
2018-01-20T13:05:10.898Z,991.6
2018-01-20T13:06:12.269Z,991.6
2018-01-20T13:07:14.586Z,991.5
2018-01-20T13:08:16.726Z,991.5
2018-01-20T13:09:20.402Z,991.4
2018-01-20T13:10:22.537Z,991.4